createdAt,value
2022-09-15T00:00:09.301Z,77.6
2022-09-15T00:01:10.721Z,77.7
2022-09-15T00:02:11.905Z,77.7
2022-09-15T00:03:12.779Z,77.7
2022-09-15T00:04:13.737Z,77.6
2022-09-15T00:05:14.776Z,77.6
2022-09-15T00:06:15.730Z,77.5
2022-09-15T00:07:16.737Z,77.2
2022-09-15T00:08:17.730Z,77.1
2022-09-15T00:09:18.744Z,77.1
2022-09-15T00:10:19.785Z,77.1
2022-09-15T00:11:20.753Z,77.2
2022-09-15T00:12:21.768Z,77.1
2022-09-15T00:13:22.787Z,77
2022-09-15T00:14:24.359Z,77
2022-09-15T00:15:25.819Z,76.9
2022-09-15T00:16:26.833Z,76.9
2022-09-15T00:17:27.777Z,76.7
2022-09-15T00:18:28.758Z,76.6
2022-09-15T00:19:29.760Z,76.7
2022-09-15T00:20:30.789Z,76.9
2022-09-15T00:21:31.822Z,77
2022-09-15T00:22:32.753Z,77.1
2022-09-15T00:23:33.834Z,77.1
2022-09-15T00:24:34.773Z,77.1
2022-09-15T00:25:35.773Z,77
2022-09-15T00:26:36.782Z,76.9
2022-09-15T00:27:37.775Z,76.8
2022-09-15T00:28:38.755Z,76.8
2022-09-15T00:29:39.796Z,76.8
2022-09-15T00:30:40.901Z,76.8
2022-09-15T00:31:41.817Z,76.7
2022-09-15T00:32:42.803Z,76.7
2022-09-15T00:33:44.236Z,76.8
2022-09-15T00:34:45.785Z,76.8
2022-09-15T00:35:46.787Z,76.9
2022-09-15T00:36:47.851Z,77
2022-09-15T00:37:48.787Z,76.9
2022-09-15T00:38:49.790Z,76.9
2022-09-15T00:39:50.859Z,76.8
2022-09-15T00:40:51.806Z,77
2022-09-15T00:41:52.823Z,77.5
2022-09-15T00:42:54.023Z,77.7
2022-09-15T00:43:55.794Z,77.9
2022-09-15T00:44:56.801Z,77.9
2022-09-15T00:45:57.894Z,77.8
2022-09-15T00:47:18.105Z,77.8
2022-09-15T00:47:59.794Z,77.6
2022-09-15T00:49:00.815Z,77.6
2022-09-15T00:50:01.856Z,77.3
2022-09-15T00:51:02.821Z,77.4
2022-09-15T00:52:04.048Z,77.4
2022-09-15T00:53:06.896Z,77.5
2022-09-15T00:54:07.802Z,77.2
2022-09-15T00:55:08.816Z,77.3
2022-09-15T00:56:09.821Z,77.3
2022-09-15T00:57:11.104Z,77.4
2022-09-15T00:58:12.819Z,77.6
2022-09-15T01:00:42.072Z,77.7
2022-09-15T01:01:44.230Z,77.9
2022-09-15T01:02:45.924Z,77.9
2022-09-15T01:03:46.828Z,78.3
2022-09-15T01:04:47.814Z,78.7
2022-09-15T01:05:48.847Z,79.1
2022-09-15T01:06:49.833Z,79.2
2022-09-15T01:07:50.885Z,79.2
2022-09-15T01:08:51.957Z,79.3
2022-09-15T01:09:52.831Z,79.3
2022-09-15T01:10:54.225Z,79.3
2022-09-15T01:11:55.870Z,79.2
2022-09-15T01:12:56.855Z,79.2
2022-09-15T01:13:57.880Z,79.2
2022-09-15T01:14:58.887Z,79.1
2022-09-15T01:16:00.071Z,78.5
2022-09-15T01:17:07.331Z,78.6
2022-09-15T01:18:08.830Z,78.6
2022-09-15T01:19:09.886Z,78.4
2022-09-15T01:20:10.877Z,78.1
2022-09-15T01:21:11.835Z,78.1
2022-09-15T01:22:12.874Z,78.1
2022-09-15T01:23:14.267Z,78.2
2022-09-15T01:24:15.902Z,78.2
2022-09-15T01:25:16.868Z,78.4
2022-09-15T01:26:18.001Z,78.6
2022-09-15T01:27:40.841Z,78.5
2022-09-15T01:28:20.858Z,78.5
2022-09-15T01:29:21.951Z,78.5
2022-09-15T01:30:22.907Z,78.3
2022-09-15T01:31:23.984Z,78.1
2022-09-15T01:32:24.894Z,78
2022-09-15T01:33:25.872Z,77.7
2022-09-15T01:34:26.926Z,77.7
2022-09-15T01:35:27.861Z,77.7
2022-09-15T01:36:28.884Z,77.7
2022-09-15T01:37:29.864Z,77.8
2022-09-15T01:38:30.884Z,77.9
2022-09-15T01:39:31.894Z,77.8
2022-09-15T01:40:32.931Z,77.7
2022-09-15T01:41:33.945Z,77.6
2022-09-15T01:42:34.892Z,77.2
2022-09-15T01:43:35.897Z,77.2
2022-09-15T01:44:36.955Z,77.1
2022-09-15T01:45:37.951Z,77.3
2022-09-15T01:46:38.918Z,77.5
2022-09-15T01:47:39.923Z,77.7
2022-09-15T01:48:40.908Z,77.8
2022-09-15T01:49:41.945Z,77.9
2022-09-15T01:50:42.908Z,78
2022-09-15T01:51:43.906Z,78
2022-09-15T01:52:44.977Z,77.7
2022-09-15T01:53:45.920Z,77.6
2022-09-15T01:54:46.957Z,77.5
2022-09-15T01:55:47.903Z,77.3
2022-09-15T01:56:48.923Z,77.3
2022-09-15T01:57:49.908Z,77.3
2022-09-15T01:58:50.917Z,77.4
2022-09-15T01:59:51.980Z,77.5
2022-09-15T02:00:52.957Z,77.6
2022-09-15T02:01:54.228Z,77.7
2022-09-15T02:02:55.941Z,77.9
2022-09-15T02:03:56.923Z,77.9
2022-09-15T02:04:57.939Z,77.9
2022-09-15T02:05:58.915Z,77.8
2022-09-15T02:06:59.915Z,77.8
2022-09-15T02:08:00.917Z,77.6
2022-09-15T02:09:01.948Z,77.7
2022-09-15T02:10:03.107Z,77.8
2022-09-15T02:11:04.953Z,77.9
2022-09-15T02:12:05.980Z,78.1
2022-09-15T02:13:06.971Z,78.2
2022-09-15T02:14:07.953Z,78.3
2022-09-15T02:15:08.992Z,78.1
2022-09-15T02:16:10.471Z,78
2022-09-15T02:17:12.001Z,78.1
2022-09-15T02:18:12.988Z,78.4
2022-09-15T02:19:13.958Z,78.6
2022-09-15T02:20:14.935Z,78.5
2022-09-15T02:21:15.964Z,78.7
2022-09-15T02:22:16.951Z,78.8
2022-09-15T02:23:17.980Z,78.9
2022-09-15T02:24:18.942Z,79
2022-09-15T02:25:19.986Z,79.2
2022-09-15T02:26:20.961Z,79.3
2022-09-15T02:27:21.955Z,79.3
2022-09-15T02:28:23.016Z,79.4
2022-09-15T02:29:24.016Z,79.3
2022-09-15T02:30:24.953Z,79.2
2022-09-15T02:31:26.056Z,79.1
2022-09-15T02:32:27.165Z,79
2022-09-15T02:33:28.043Z,79
2022-09-15T02:34:29.003Z,79
2022-09-15T02:35:30.173Z,79
2022-09-15T02:36:32.019Z,78.9
2022-09-15T02:37:32.982Z,78.9
2022-09-15T02:38:34.262Z,78.7
2022-09-15T02:39:36.000Z,78.7
2022-09-15T02:40:37.023Z,78.8
2022-09-15T02:41:37.975Z,79.1
2022-09-15T02:42:38.991Z,79.3
2022-09-15T02:43:41.091Z,79.4
2022-09-15T02:44:43.037Z,79.4
2022-09-15T02:45:44.167Z,79.2
2022-09-15T02:46:46.096Z,78.9
2022-09-15T02:47:48.045Z,78.7
2022-09-15T02:48:48.995Z,78.7
2022-09-15T02:49:50.204Z,78.7
2022-09-15T02:50:51.998Z,78.8
2022-09-15T02:51:52.997Z,78.8
2022-09-15T02:52:53.999Z,78.8
2022-09-15T02:53:55.526Z,78.7
2022-09-15T02:54:57.041Z,78.7
2022-09-15T02:55:58.074Z,79
2022-09-15T02:56:59.008Z,79.2
2022-09-15T02:58:00.427Z,79.5
2022-09-15T02:59:02.044Z,79.8
2022-09-15T03:00:03.120Z,80.1
2022-09-15T03:01:06.283Z,80.1
2022-09-15T03:02:08.134Z,80.4
2022-09-15T03:03:09.046Z,80.7
2022-09-15T03:04:10.559Z,80.8
2022-09-15T03:05:12.032Z,80.6
2022-09-15T03:06:13.090Z,80.7
2022-09-15T03:07:14.039Z,81.2
2022-09-15T03:08:15.013Z,81.4
2022-09-15T03:09:16.037Z,81.3
2022-09-15T03:10:17.030Z,81.3
2022-09-15T03:11:18.071Z,81.3
2022-09-15T03:12:19.099Z,81.2
2022-09-15T03:13:20.447Z,81
2022-09-15T03:14:22.027Z,81.2
2022-09-15T03:15:23.073Z,81.1
2022-09-15T03:16:24.089Z,81.2
2022-09-15T03:17:25.128Z,81.2
2022-09-15T03:18:26.126Z,80.9
2022-09-15T03:19:27.051Z,80.5
2022-09-15T03:20:28.086Z,80.2
2022-09-15T03:21:29.041Z,80
2022-09-15T03:22:30.215Z,80.1
2022-09-15T03:23:32.123Z,80.2
2022-09-15T03:24:33.050Z,80.1
2022-09-15T03:25:34.057Z,80.1
2022-09-15T03:26:35.103Z,80.2
2022-09-15T03:27:36.104Z,79.8
2022-09-15T03:28:37.852Z,79.9
2022-09-15T03:29:39.083Z,80
2022-09-15T03:30:40.127Z,80.2
2022-09-15T03:31:41.167Z,80.1
2022-09-15T03:32:42.085Z,80.1
2022-09-15T03:33:43.111Z,80.2
2022-09-15T03:34:44.077Z,80.3
2022-09-15T03:35:45.161Z,80.4
2022-09-15T03:36:46.063Z,80.5
2022-09-15T03:37:47.135Z,80.7
2022-09-15T03:38:48.097Z,80.8
2022-09-15T03:39:49.132Z,81.1
2022-09-15T03:40:50.148Z,81
2022-09-15T03:41:51.091Z,80.8
2022-09-15T03:42:52.095Z,80.2
2022-09-15T03:43:53.164Z,80
2022-09-15T03:44:54.105Z,80
2022-09-15T03:45:55.372Z,80
2022-09-15T03:46:58.164Z,79.8
2022-09-15T03:47:59.168Z,79.7
2022-09-15T03:49:00.164Z,79.5
2022-09-15T03:50:01.093Z,79.4
2022-09-15T03:51:02.155Z,79
2022-09-15T03:52:03.140Z,78.8
2022-09-15T03:53:04.124Z,78.8
2022-09-15T03:54:05.135Z,78.9
2022-09-15T03:55:06.089Z,79
2022-09-15T03:56:07.109Z,79.2
2022-09-15T03:57:08.156Z,79.3
2022-09-15T03:58:09.114Z,79.5
2022-09-15T03:59:10.148Z,79.8
2022-09-15T04:00:11.104Z,80.3
2022-09-15T04:01:12.452Z,80.9
2022-09-15T04:02:14.222Z,81.2
2022-09-15T04:03:15.160Z,81.4
2022-09-15T04:04:16.133Z,81.7
2022-09-15T04:05:17.104Z,81.8
2022-09-15T04:06:18.134Z,81.9
2022-09-15T04:07:19.194Z,81.7
2022-09-15T04:08:20.158Z,81.4
2022-09-15T04:09:21.160Z,81.2
2022-09-15T04:10:22.195Z,81.2
2022-09-15T04:11:23.134Z,81.2
2022-09-15T04:12:24.203Z,81.1
2022-09-15T04:13:28.539Z,80.6
2022-09-15T04:14:26.113Z,80.3
2022-09-15T04:15:28.281Z,79.6
2022-09-15T04:16:30.529Z,79.2
2022-09-15T04:17:32.176Z,79
2022-09-15T04:18:33.188Z,78.6
2022-09-15T04:19:34.176Z,78.5
2022-09-15T04:20:35.192Z,78.1
2022-09-15T04:21:36.137Z,77.8
2022-09-15T04:22:37.291Z,77.5
2022-09-15T04:23:38.206Z,77.6
2022-09-15T04:24:39.147Z,77.3
2022-09-15T04:25:40.158Z,76.8
2022-09-15T04:26:41.161Z,76.7
2022-09-15T04:27:42.392Z,76.9
2022-09-15T04:28:44.218Z,77.4
2022-09-15T04:29:45.160Z,78.1
2022-09-15T04:30:46.156Z,78.8
2022-09-15T04:31:47.296Z,79
2022-09-15T04:32:48.175Z,79
2022-09-15T04:33:49.186Z,79.4
2022-09-15T04:34:50.228Z,79.6
2022-09-15T04:35:51.201Z,79.8
2022-09-15T04:36:52.181Z,79.9
2022-09-15T04:37:53.180Z,80.1
2022-09-15T04:38:54.201Z,79.9
2022-09-15T04:39:55.333Z,79.7
2022-09-15T04:40:57.212Z,79.8
2022-09-15T04:41:58.158Z,80.2
2022-09-15T04:42:59.242Z,80.5
2022-09-15T04:44:00.230Z,80.6
2022-09-15T04:45:01.196Z,80.6
2022-09-15T04:46:02.235Z,80.4
2022-09-15T04:47:03.239Z,80.4
2022-09-15T04:48:04.210Z,80.2
2022-09-15T04:49:05.204Z,80
2022-09-15T04:50:06.252Z,80.3
2022-09-15T04:51:08.140Z,80.7
2022-09-15T04:52:09.791Z,81.2
2022-09-15T04:53:10.213Z,81.2
2022-09-15T04:54:11.198Z,81.3
2022-09-15T04:55:12.200Z,81.6
2022-09-15T04:56:13.247Z,81.8
2022-09-15T04:57:14.231Z,81.7
2022-09-15T04:58:15.269Z,81.3
2022-09-15T04:59:16.180Z,81.1
2022-09-15T05:00:17.208Z,81.1
2022-09-15T05:01:18.320Z,81
2022-09-15T05:02:19.372Z,80.8
2022-09-15T05:03:20.200Z,80.7
2022-09-15T05:04:21.205Z,80.6
2022-09-15T05:05:22.248Z,80.8
2022-09-15T05:06:23.194Z,80.8
2022-09-15T05:07:24.236Z,80.8
2022-09-15T05:08:26.451Z,81
2022-09-15T05:09:28.210Z,81.3
2022-09-15T05:10:29.219Z,81.3
2022-09-15T05:11:30.250Z,80.8
2022-09-15T05:12:31.222Z,80.7
2022-09-15T05:13:32.278Z,80.8
2022-09-15T05:14:33.251Z,80.9
2022-09-15T05:15:34.208Z,80.8
2022-09-15T05:16:36.456Z,80.6
2022-09-15T05:17:38.232Z,80.4
2022-09-15T05:18:39.530Z,80.2
2022-09-15T05:19:41.272Z,80.2
2022-09-15T05:20:42.242Z,80.2
2022-09-15T05:21:43.238Z,80.3
2022-09-15T05:22:44.239Z,80.9
2022-09-15T05:23:45.307Z,81.2
2022-09-15T05:24:46.254Z,80.9
2022-09-15T05:25:47.237Z,80.8
2022-09-15T05:26:48.268Z,80.5
2022-09-15T05:27:49.254Z,80.3
2022-09-15T05:28:50.478Z,80
2022-09-15T05:30:04.424Z,79.8
2022-09-15T05:30:53.377Z,79.8
2022-09-15T05:31:55.418Z,80
2022-09-15T05:32:56.241Z,79.8
2022-09-15T05:33:57.537Z,80
2022-09-15T05:34:59.252Z,80.3
2022-09-15T05:36:00.324Z,80.5
2022-09-15T05:37:01.249Z,80.7
2022-09-15T05:38:02.522Z,80.6
2022-09-15T05:39:04.256Z,80.7
2022-09-15T05:40:08.566Z,80.4
2022-09-15T05:41:06.303Z,80.2
2022-09-15T05:42:07.338Z,80.2
2022-09-15T05:43:08.288Z,80
2022-09-15T05:44:09.457Z,79.4
2022-09-15T05:45:11.338Z,79.1
2022-09-15T05:46:12.393Z,79.2
2022-09-15T05:47:13.258Z,79.2
2022-09-15T05:48:14.289Z,79
2022-09-15T05:49:16.479Z,78.7
2022-09-15T05:50:18.266Z,78.5
2022-09-15T05:51:19.292Z,78.3
2022-09-15T05:52:20.263Z,78
2022-09-15T05:53:21.262Z,77.5
2022-09-15T05:54:23.399Z,77.5
2022-09-15T05:55:25.284Z,77.6
2022-09-15T05:56:26.988Z,77.7
2022-09-15T05:57:28.292Z,77.8
2022-09-15T05:58:29.538Z,77.9
2022-09-15T05:59:31.557Z,78
2022-09-15T06:00:33.299Z,77.8
2022-09-15T06:01:34.327Z,78
2022-09-15T06:02:35.377Z,78.3
2022-09-15T06:03:36.318Z,78.7
2022-09-15T06:04:38.446Z,79
2022-09-15T06:05:40.326Z,79.1
2022-09-15T06:06:42.098Z,79.3
2022-09-15T06:07:43.315Z,79.8
2022-09-15T06:08:45.326Z,80.1
2022-09-15T06:09:46.327Z,80.3
2022-09-15T06:10:47.648Z,80.5
2022-09-15T06:11:49.303Z,80.6
2022-09-15T06:12:50.319Z,80.3
2022-09-15T06:13:52.140Z,80.2
2022-09-15T06:14:53.350Z,79.9
2022-09-15T06:15:54.467Z,80
2022-09-15T06:16:56.317Z,79.9
2022-09-15T06:17:58.382Z,79.1
2022-09-15T06:18:59.892Z,78.8
2022-09-15T06:20:01.338Z,77.7
2022-09-15T06:21:03.458Z,76.8
2022-09-15T06:22:05.381Z,77
2022-09-15T06:23:07.084Z,76.5
2022-09-15T06:24:08.422Z,76.9
2022-09-15T06:25:10.076Z,76.8
2022-09-15T06:26:12.014Z,77.2
2022-09-15T06:27:13.582Z,77.3
2022-09-15T06:28:15.350Z,77.8
2022-09-15T06:29:16.423Z,76.5
2022-09-15T06:30:17.618Z,75.6
2022-09-15T06:31:19.478Z,75.5
2022-09-15T06:32:21.421Z,75.8
2022-09-15T06:33:23.227Z,76.6
2022-09-15T06:34:27.237Z,77.1
2022-09-15T06:35:29.537Z,77.3
2022-09-15T06:36:31.381Z,76.7
2022-09-15T06:37:33.427Z,76.9
2022-09-15T06:38:34.596Z,76.9
2022-09-15T06:39:36.418Z,77.2
2022-09-15T06:40:37.606Z,77.2
2022-09-15T06:41:58.713Z,76.9
2022-09-15T06:42:40.605Z,76.1
2022-09-15T06:43:42.474Z,75.6
2022-09-15T06:44:43.404Z,74.6
2022-09-15T06:45:44.912Z,74
2022-09-15T06:46:47.076Z,73.1
2022-09-15T06:47:58.233Z,73.3
2022-09-15T06:48:50.409Z,73.2
2022-09-15T06:49:52.075Z,73.1
2022-09-15T06:50:53.391Z,72.9
2022-09-15T06:51:54.448Z,73.1
2022-09-15T06:52:56.196Z,73.1
2022-09-15T06:53:57.712Z,72.4
2022-09-15T06:54:59.448Z,71.5
2022-09-15T06:56:00.720Z,71.4
2022-09-15T06:57:03.255Z,70.7
2022-09-15T06:58:04.667Z,69.9
2022-09-15T06:59:06.413Z,67.4
2022-09-15T07:00:08.040Z,66.4
2022-09-15T07:01:09.943Z,65.9
2022-09-15T07:02:12.400Z,65.9
2022-09-15T07:03:13.835Z,65
2022-09-15T07:04:15.448Z,64.8
2022-09-15T07:05:17.161Z,64.9
2022-09-15T07:06:19.504Z,64.6
2022-09-15T07:07:21.388Z,64.3
2022-09-15T07:08:23.497Z,65.1
2022-09-15T07:09:24.572Z,66
2022-09-15T07:10:26.558Z,66
2022-09-15T07:11:28.116Z,65.5
2022-09-15T07:12:29.945Z,65.7
2022-09-15T07:13:32.115Z,66.6
2022-09-15T07:14:33.760Z,67.1
2022-09-15T07:15:35.700Z,67.3
2022-09-15T07:16:38.619Z,67.7
2022-09-15T07:17:40.120Z,68.3
2022-09-15T07:18:43.427Z,66.9
2022-09-15T07:19:43.399Z,66.1
2022-09-15T07:20:44.433Z,65.3
2022-09-15T07:21:45.465Z,64.2
2022-09-15T07:22:47.114Z,62.8
2022-09-15T07:23:48.763Z,62
2022-09-15T07:24:50.422Z,61.5
2022-09-15T07:25:52.100Z,62.1
2022-09-15T07:26:53.753Z,63.1
2022-09-15T07:27:55.437Z,64.2
2022-09-15T07:28:57.097Z,65.6
2022-09-15T07:29:58.647Z,66.3
2022-09-15T07:31:00.542Z,65.6
2022-09-15T07:32:02.193Z,64.6
2022-09-15T07:33:03.816Z,63.8
2022-09-15T07:34:05.467Z,64
2022-09-15T07:35:07.111Z,65.4
2022-09-15T07:36:08.462Z,66.5
2022-09-15T07:37:09.465Z,67.4
2022-09-15T07:38:11.505Z,67
2022-09-15T07:39:13.065Z,66.7
2022-09-15T07:40:14.711Z,64.9
2022-09-15T07:41:16.550Z,64.2
2022-09-15T07:42:18.519Z,63.3
2022-09-15T07:43:19.637Z,63.4
2022-09-15T07:44:21.593Z,62
2022-09-15T07:45:23.555Z,60.4
2022-09-15T07:46:24.706Z,59.1
2022-09-15T07:47:27.152Z,57.9
2022-09-15T07:48:29.719Z,57.7
2022-09-15T07:49:31.457Z,57.7
2022-09-15T07:50:32.502Z,57.8
2022-09-15T07:51:33.780Z,56.7
2022-09-15T07:52:35.501Z,55.3
2022-09-15T07:53:37.147Z,55.6
2022-09-15T07:54:38.503Z,57
2022-09-15T07:55:39.466Z,58.5
2022-09-15T07:56:40.794Z,59.6
2022-09-15T07:57:42.528Z,60.6
2022-09-15T07:58:43.751Z,61.4
2022-09-15T07:59:45.479Z,62.8
2022-09-15T08:00:47.190Z,64
2022-09-15T08:01:48.672Z,65.1
2022-09-15T08:02:50.495Z,65.4
2022-09-15T08:03:51.723Z,65.9
2022-09-15T08:04:52.541Z,66.3
2022-09-15T08:05:53.838Z,66.1
2022-09-15T08:06:55.787Z,65.4
2022-09-15T08:07:57.543Z,64.5
2022-09-15T08:09:00.586Z,64
2022-09-15T08:10:00.525Z,62.6
2022-09-15T08:11:01.522Z,59.8
2022-09-15T08:12:02.648Z,58
2022-09-15T08:13:04.522Z,56.7
2022-09-15T08:14:05.564Z,55
2022-09-15T08:15:07.205Z,53.3
2022-09-15T08:16:09.455Z,53.1
2022-09-15T08:17:11.608Z,52.7
2022-09-15T08:18:12.540Z,52.2
2022-09-15T08:19:13.838Z,50.7
2022-09-15T08:20:15.639Z,50.5
2022-09-15T08:21:17.524Z,51.7
2022-09-15T08:22:19.585Z,53.1
2022-09-15T08:23:21.648Z,53.7
2022-09-15T08:24:23.547Z,53.7
2022-09-15T08:25:24.565Z,54.2
2022-09-15T08:26:25.581Z,55.2
2022-09-15T08:27:26.569Z,56.3
2022-09-15T08:28:27.545Z,58.2
2022-09-15T08:29:28.606Z,59.5
2022-09-15T08:30:29.634Z,59.8
2022-09-15T08:31:30.592Z,59.2
2022-09-15T08:32:31.532Z,58.1
2022-09-15T08:33:32.571Z,57.4
2022-09-15T08:34:33.573Z,56.4
2022-09-15T08:35:34.572Z,55.7
2022-09-15T08:36:35.586Z,54.4
2022-09-15T08:37:37.120Z,53.8
2022-09-15T08:38:38.577Z,52.8
2022-09-15T08:39:39.595Z,52.5
2022-09-15T08:40:41.673Z,51.5
2022-09-15T08:41:42.696Z,51.1
2022-09-15T08:42:45.076Z,51.3
2022-09-15T08:43:46.074Z,50.7
2022-09-15T08:44:48.228Z,49.7
2022-09-15T08:45:49.581Z,48.9
2022-09-15T08:46:50.613Z,48.6
2022-09-15T08:47:51.829Z,48.5
2022-09-15T08:48:53.630Z,48.5
2022-09-15T08:49:54.644Z,48.6
2022-09-15T08:50:55.555Z,49.3
2022-09-15T08:51:57.211Z,49.8
2022-09-15T08:52:58.586Z,50.8
2022-09-15T08:53:59.662Z,52.4
2022-09-15T08:55:01.686Z,52.6
2022-09-15T08:56:06.231Z,52.3
2022-09-15T08:57:04.678Z,53.3
2022-09-15T08:58:05.623Z,54.2
2022-09-15T08:59:06.955Z,55.4
2022-09-15T09:00:08.642Z,55.9
2022-09-15T09:01:09.691Z,57.1
2022-09-15T09:02:10.645Z,57.6
2022-09-15T09:03:11.669Z,57.3
2022-09-15T09:04:15.424Z,56.3
2022-09-15T09:05:13.669Z,55.9
2022-09-15T09:06:14.601Z,54.3
2022-09-15T09:07:15.690Z,52.4
2022-09-15T09:08:17.177Z,51.8
2022-09-15T09:09:18.634Z,51
2022-09-15T09:10:19.832Z,51
2022-09-15T09:11:21.623Z,50.2
2022-09-15T09:12:22.702Z,51.1
2022-09-15T09:13:23.805Z,51.9
2022-09-15T09:14:25.634Z,53.1
2022-09-15T09:15:26.685Z,54.6
2022-09-15T09:16:27.592Z,55.1
2022-09-15T09:17:28.654Z,55.8
2022-09-15T09:18:29.938Z,57
2022-09-15T09:19:32.391Z,58
2022-09-15T09:20:32.652Z,58.5
2022-09-15T09:21:33.623Z,58.9
2022-09-15T09:22:34.643Z,59.3
2022-09-15T09:23:35.692Z,59.3
2022-09-15T09:24:36.627Z,59.3
2022-09-15T09:25:37.638Z,59.4
2022-09-15T09:26:39.019Z,59
2022-09-15T09:27:40.653Z,58
2022-09-15T09:28:41.678Z,57.3
2022-09-15T09:29:43.806Z,56.8
2022-09-15T09:30:45.735Z,57
2022-09-15T09:31:46.657Z,57.1
2022-09-15T09:32:47.665Z,57.2
2022-09-15T09:33:48.813Z,57.4
2022-09-15T09:34:49.676Z,57.5
2022-09-15T09:35:50.653Z,57.6
2022-09-15T09:36:51.715Z,56.2
2022-09-15T09:37:52.644Z,55.3
2022-09-15T09:38:53.705Z,55.4
2022-09-15T09:39:54.723Z,55.3
2022-09-15T09:40:58.650Z,54.5
2022-09-15T09:41:56.739Z,53.8
2022-09-15T09:42:57.643Z,53.5
2022-09-15T09:43:58.660Z,53.4
2022-09-15T09:44:59.683Z,54.4
2022-09-15T09:46:00.714Z,55.2
2022-09-15T09:47:01.735Z,56
2022-09-15T09:48:02.887Z,56.6
2022-09-15T09:49:04.697Z,57.1
2022-09-15T09:50:05.775Z,58.1
2022-09-15T09:51:07.672Z,59.1
2022-09-15T09:52:08.691Z,60
2022-09-15T09:53:09.773Z,60
2022-09-15T09:54:10.704Z,60
2022-09-15T09:55:11.739Z,59.9
2022-09-15T09:56:12.672Z,60
2022-09-15T09:57:13.863Z,60.3
2022-09-15T09:58:14.677Z,60.4
2022-09-15T09:59:15.709Z,59.5
2022-09-15T10:00:16.735Z,58.7
2022-09-15T10:01:17.775Z,57.7
2022-09-15T10:02:18.732Z,57.2
2022-09-15T10:03:19.711Z,56.8
2022-09-15T10:04:21.783Z,55.8
2022-09-15T10:05:22.703Z,55.1
2022-09-15T10:06:23.791Z,54
2022-09-15T10:07:24.745Z,53.2
2022-09-15T10:08:25.686Z,52.7
2022-09-15T10:09:29.968Z,52.7
2022-09-15T10:10:27.711Z,52.3
2022-09-15T10:11:28.723Z,52.3
2022-09-15T10:12:29.734Z,51.6
2022-09-15T10:13:30.695Z,51.1
2022-09-15T10:14:31.778Z,51.3
2022-09-15T10:15:32.750Z,51.6
2022-09-15T10:16:33.807Z,51.8
2022-09-15T10:17:34.722Z,52.8
2022-09-15T10:18:35.719Z,52.1
2022-09-15T10:19:36.744Z,51.7
2022-09-15T10:20:37.725Z,51.2
2022-09-15T10:21:38.779Z,51
2022-09-15T10:22:39.888Z,51.2
2022-09-15T10:23:41.765Z,51.3
2022-09-15T10:24:42.729Z,50.7
2022-09-15T10:25:58.433Z,51.1
2022-09-15T10:26:44.791Z,51.4
2022-09-15T10:27:51.163Z,51.9
2022-09-15T10:28:52.744Z,52.6
2022-09-15T10:29:53.875Z,53.2
2022-09-15T10:30:55.741Z,53.7
2022-09-15T10:31:57.903Z,53.9
2022-09-15T10:32:59.822Z,54.3
2022-09-15T10:34:00.758Z,54.6
2022-09-15T10:35:01.781Z,54.8
2022-09-15T10:36:02.792Z,55.8
2022-09-15T10:37:03.813Z,56.9
2022-09-15T10:38:04.758Z,57.2
2022-09-15T10:39:06.008Z,57.7
2022-09-15T10:40:08.050Z,57.8
2022-09-15T10:41:09.764Z,58.3
2022-09-15T10:42:10.812Z,58.5
2022-09-15T10:43:11.816Z,58.7
2022-09-15T10:44:12.761Z,59.1
2022-09-15T10:45:13.877Z,59.7
2022-09-15T10:46:15.845Z,60
2022-09-15T10:47:16.776Z,60.3
2022-09-15T10:48:17.792Z,60.4
2022-09-15T10:49:18.838Z,60.2
2022-09-15T10:50:19.829Z,60
2022-09-15T10:51:20.795Z,59.9
2022-09-15T10:52:21.892Z,59.7
2022-09-15T10:53:22.821Z,60.1
2022-09-15T10:54:23.792Z,60.4
2022-09-15T10:55:42.425Z,60.5
2022-09-15T10:56:25.816Z,60.5
2022-09-15T10:58:27.939Z,61
2022-09-15T10:59:28.849Z,61
2022-09-15T11:00:29.786Z,61.2
2022-09-15T11:01:30.830Z,61.3
2022-09-15T11:02:32.069Z,61.4
2022-09-15T11:03:33.803Z,61.9
2022-09-15T11:04:34.801Z,61.5
2022-09-15T11:05:35.844Z,61.1
2022-09-15T11:06:36.841Z,61.2
2022-09-15T11:07:37.854Z,61.1
2022-09-15T11:08:38.832Z,60.6
2022-09-15T11:09:39.815Z,60.5
2022-09-15T11:10:40.812Z,60.8
2022-09-15T11:11:41.872Z,60.3
2022-09-15T11:12:42.820Z,60
2022-09-15T11:13:43.845Z,59.6
2022-09-15T11:14:44.822Z,59.3
2022-09-15T11:15:45.843Z,58.4
2022-09-15T11:16:46.872Z,58
2022-09-15T11:17:47.829Z,57.3
2022-09-15T11:18:48.827Z,57.3
2022-09-15T11:19:49.833Z,57
2022-09-15T11:20:50.838Z,56.7
2022-09-15T11:21:51.842Z,55.2
2022-09-15T11:22:52.856Z,54.5
2022-09-15T11:23:53.834Z,54
2022-09-15T11:24:54.847Z,54
2022-09-15T11:25:55.827Z,53.5
2022-09-15T11:26:56.938Z,52.8
2022-09-15T11:27:58.827Z,51.9
2022-09-15T11:28:59.863Z,51.9
2022-09-15T11:30:00.887Z,52
2022-09-15T11:31:01.961Z,52
2022-09-15T11:33:04.860Z,52.3
2022-09-15T11:34:05.832Z,52.2
2022-09-15T11:35:06.935Z,52.3
2022-09-15T11:36:07.858Z,52.4
2022-09-15T11:37:08.851Z,52.7
2022-09-15T11:38:12.776Z,52.8
2022-09-15T11:39:10.846Z,53.1
2022-09-15T11:40:11.999Z,53
2022-09-15T11:41:13.887Z,52.8
2022-09-15T11:42:14.858Z,52.6
2022-09-15T11:43:15.953Z,53
2022-09-15T11:44:17.946Z,52.8
2022-09-15T11:45:18.864Z,53.6
2022-09-15T11:46:19.957Z,54.1
2022-09-15T11:47:20.893Z,54.4
2022-09-15T11:48:21.905Z,54.8
2022-09-15T11:49:22.876Z,54.8
2022-09-15T11:50:24.019Z,55
2022-09-15T11:51:25.898Z,54.2
2022-09-15T11:52:26.948Z,53
2022-09-15T11:53:27.901Z,52.7
2022-09-15T11:54:31.315Z,52.3
2022-09-15T11:55:29.946Z,52.7
2022-09-15T11:56:30.890Z,52.7
2022-09-15T11:57:31.893Z,52.8
2022-09-15T11:58:33.936Z,52.7
2022-09-15T11:59:34.918Z,53.1
2022-09-15T12:00:35.948Z,53.3
2022-09-15T12:01:36.974Z,53.5
2022-09-15T12:02:38.136Z,53.9
2022-09-15T12:03:39.964Z,54.1
2022-09-15T12:04:40.938Z,54.3
2022-09-15T12:05:41.923Z,53.5
2022-09-15T12:06:45.701Z,53.9
2022-09-15T12:07:43.948Z,53.7
2022-09-15T12:08:45.085Z,53.3
2022-09-15T12:09:46.962Z,53.2
2022-09-15T12:10:47.984Z,53.4
2022-09-15T12:11:48.901Z,53.6
2022-09-15T12:12:50.029Z,53.3
2022-09-15T12:13:51.959Z,53.3
2022-09-15T12:14:53.355Z,52.7
2022-09-15T12:15:54.957Z,52.4
2022-09-15T12:16:55.929Z,52.3
2022-09-15T12:17:56.987Z,52.6
2022-09-15T12:18:57.971Z,52.6
2022-09-15T12:19:58.971Z,53.3
2022-09-15T12:20:59.940Z,53.4
2022-09-15T12:22:00.910Z,54.1
2022-09-15T12:23:01.938Z,55.1
2022-09-15T12:24:03.143Z,55.2
2022-09-15T12:25:04.971Z,54.4
2022-09-15T12:26:05.936Z,54
2022-09-15T12:27:06.982Z,53.8
2022-09-15T12:28:07.969Z,53.4
2022-09-15T12:29:08.959Z,52.9
2022-09-15T12:30:10.028Z,52.8
2022-09-15T12:31:11.058Z,52.5
2022-09-15T12:32:11.934Z,52.8
2022-09-15T12:33:12.947Z,52.6
2022-09-15T12:34:13.951Z,52.5
2022-09-15T12:35:15.013Z,52.8
2022-09-15T12:36:15.943Z,53.4
2022-09-15T12:37:16.986Z,53.7
2022-09-15T12:38:17.931Z,54
2022-09-15T12:39:18.955Z,53.6
2022-09-15T12:40:20.046Z,53.4
2022-09-15T12:41:20.985Z,54.1
2022-09-15T12:42:21.961Z,54.7
2022-09-15T12:43:23.000Z,54.6
2022-09-15T12:44:23.995Z,54.5
2022-09-15T12:45:25.014Z,54.7
2022-09-15T12:46:26.064Z,54.6
2022-09-15T12:47:27.273Z,54.4
2022-09-15T12:48:28.957Z,54.4
2022-09-15T12:49:29.975Z,54.1
2022-09-15T12:50:31.001Z,54
2022-09-15T12:51:31.999Z,54.1
2022-09-15T12:52:33.017Z,54.7
2022-09-15T12:54:35.009Z,55.5
2022-09-15T12:55:35.993Z,56
2022-09-15T12:56:37.013Z,56.4
2022-09-15T12:57:38.006Z,56.7
2022-09-15T12:58:39.051Z,56.9
2022-09-15T12:59:40.018Z,56.2
2022-09-15T13:00:49.827Z,56.5
2022-09-15T13:01:42.079Z,56.8
2022-09-15T13:02:43.180Z,56.7
2022-09-15T13:03:45.044Z,56.9
2022-09-15T13:04:46.026Z,56.6
2022-09-15T13:05:47.027Z,56.1
2022-09-15T13:06:48.220Z,55.8
2022-09-15T13:07:50.040Z,55.9
2022-09-15T13:08:51.016Z,55.3
2022-09-15T13:09:52.028Z,54.7
2022-09-15T13:10:53.039Z,54.5
2022-09-15T13:11:54.008Z,54.9
2022-09-15T13:12:55.081Z,55.1
2022-09-15T13:13:56.023Z,55.7
2022-09-15T13:14:56.999Z,55.6
2022-09-15T13:15:58.276Z,55.5
2022-09-15T13:17:00.077Z,55.4
2022-09-15T13:18:01.068Z,55.8
2022-09-15T13:19:02.018Z,55.7
2022-09-15T13:20:03.115Z,55.5
2022-09-15T13:21:04.059Z,55.1
2022-09-15T13:22:05.288Z,54.9
2022-09-15T13:23:07.123Z,55.2
2022-09-15T13:24:09.041Z,55.7
2022-09-15T13:25:10.043Z,55.7
2022-09-15T13:26:11.073Z,55.7
2022-09-15T13:27:12.098Z,55.9
2022-09-15T13:28:13.094Z,55.7
2022-09-15T13:29:14.157Z,55.9
2022-09-15T13:30:16.070Z,55.4
2022-09-15T13:31:17.154Z,55.1
2022-09-15T13:32:18.099Z,54.8
2022-09-15T13:33:19.254Z,54.1
2022-09-15T13:35:21.269Z,53.7
2022-09-15T13:36:22.436Z,53.7
2022-09-15T13:38:29.250Z,54.4
2022-09-15T13:39:26.050Z,54.2
2022-09-15T13:40:27.335Z,54.2
2022-09-15T13:41:28.056Z,53.7
2022-09-15T13:42:29.104Z,53.5
2022-09-15T13:43:30.057Z,53.5
2022-09-15T13:44:31.064Z,53.1
2022-09-15T13:45:32.078Z,52.9
2022-09-15T13:46:33.117Z,53.1
2022-09-15T13:47:34.983Z,53.2